Time;durP1;ratioP1;P1;durP2;ratioP2;P2;SDS_P1;SDS_P2;PMS_P1;PMS_P2;Temp;Humidity;BMP_temperature;BMP_pressure;BME280_temperature;BME280_humidity;BME280_pressure;Samples;Min_cycle;Max_cycle;Signal;HPM_P1;HPM_P2
2022/02/09 00:01:47;;;;;;;5.78;2.33;;;;;;;;;;5052531;28;20136;-71
2022/02/09 00:09:13;;;;;;;7.35;2.60;;;;;;;;;;5034710;28;20060;-71
2022/02/09 00:11:48;;;;;;;3.78;2.38;;;;;;;;;;5052989;28;20123;-70
2022/02/09 00:19:59;;;;;;;7.65;2.40;;;;;;;;;;5052601;28;20033;-71
2022/02/09 01:57:11;;;;;;;2.70;1.60;;;;;;;;;;5050999;28;20048;-67
2022/02/09 01:59:40;;;;;;;;;;;;;;;;;;5034181;28;20051;-70
2022/02/09 02:02:07;;;;;;;6.28;2.05;;;;;;;;;;5057536;28;19920;-71
2022/02/09 02:04:35;;;;;;;2.88;1.70;;;;;;;;;;5072477;28;20106;-73
2022/02/09 02:07:08;;;;;;;3.60;1.92;;;;;;;;;;5057129;28;20036;-69
2022/02/09 02:09:37;;;;;;;6.45;2.05;;;;;;;;;;5075402;28;20040;-73
2022/02/09 02:12:14;;;;;;;3.08;1.60;;;;;;;;;;5075035;28;20040;-71
2022/02/09 02:14:46;;;;;;;6.60;1.90;;;;;;;;;;5075143;28;20052;-72
2022/02/09 02:19:49;;;;;;;6.18;1.92;;;;;;;;;;5075327;28;20047;-70
2022/02/09 02:59:36;;;;;;;4.55;1.10;;;;;;;;;;5074387;28;20165;-69
2022/02/09 03:08:26;;;;;;;2.80;1.25;;;;;;;;;;5055717;28;20518;-70
2022/02/09 03:13:09;;;;;;;3.60;0.90;;;;;;;;;;5074279;28;20048;-72
2022/02/09 03:57:47;;;;;;;7.25;1.48;;;;;;;;;;5072762;28;20036;-70
2022/02/09 04:00:18;;;;;;;4.47;1.13;;;;;;;;;;5072751;28;20079;-72
2022/02/09 04:02:51;;;;;;;7.40;1.83;;;;;;;;;;5039925;28;20041;-73
2022/02/09 04:05:21;;;;;;;5.82;1.58;;;;;;;;;;5052782;28;20151;-72
2022/02/09 04:07:49;;;;;;;6.43;1.55;;;;;;;;;;5052989;28;20041;-72
2022/02/09 04:10:24;;;;;;;1.95;1.23;;;;;;;;;;5053023;28;20471;-72
2022/02/09 04:40:31;;;;;;;4.65;1.20;;;;;;;;;;5072292;28;20036;-69
2022/02/09 04:51:05;;;;;;;8.23;1.30;;;;;;;;;;5072028;28;20512;-72
2022/02/09 04:56:33;;;;;;;4.30;1.27;;;;;;;;;;5072441;28;20041;-73
2022/02/09 05:28:44;;;;;;;5.10;1.73;;;;;;;;;;5071702;28;20047;-72
2022/02/09 05:31:11;;;;;;;5.82;1.48;;;;;;;;;;5072086;28;20388;-71
2022/02/09 05:33:39;;;;;;;3.70;1.50;;;;;;;;;;5071981;28;20495;-72
2022/02/09 05:36:06;;;;;;;2.55;1.25;;;;;;;;;;5071687;28;20033;-72
2022/02/09 05:38:34;;;;;;;4.72;2.30;;;;;;;;;;5072323;28;20413;-72
2022/02/09 05:41:01;;;;;;;6.70;2.33;;;;;;;;;;5075404;28;20455;-72
2022/02/09 05:43:29;;;;;;;7.55;2.20;;;;;;;;;;5057510;28;20051;-72
2022/02/09 05:49:25;;;;;;;5.13;2.53;;;;;;;;;;5075158;28;20488;-72
2022/02/09 05:51:49;;;;;;;8.15;3.05;;;;;;;;;;5074869;28;20041;-68
2022/02/09 05:56:48;;;;;;;7.15;2.17;;;;;;;;;;5075648;28;20048;-68
2022/02/09 06:01:45;;;;;;;6.72;2.50;;;;;;;;;;5057130;28;20515;-68
2022/02/09 06:04:12;;;;;;;6.93;2.08;;;;;;;;;;5075255;28;20119;-71
2022/02/09 06:06:40;;;;;;;8.82;2.70;;;;;;;;;;5075097;28;20047;-70
2022/02/09 06:09:08;;;;;;;4.43;1.80;;;;;;;;;;5075293;28;20059;-71
2022/02/09 06:22:01;;;;;;;2.75;1.40;;;;;;;;;;5054237;28;20041;-71
2022/02/09 06:24:28;;;;;;;4.80;1.77;;;;;;;;;;5054877;28;20060;-69
2022/02/09 06:26:57;;;;;;;3.80;1.85;;;;;;;;;;5055328;28;20052;-69
2022/02/09 06:29:25;;;;;;;11.15;2.13;;;;;;;;;;5061143;28;20043;-69
2022/02/09 06:31:52;;;;;;;6.18;2.10;;;;;;;;;;5053399;28;20128;-70
2022/02/09 06:34:21;;;;;;;8.23;2.70;;;;;;;;;;5055008;28;20049;-72
2022/02/09 06:36:57;;;;;;;6.40;2.95;;;;;;;;;;5055392;28;20049;-71
2022/02/09 06:39:26;;;;;;;6.22;2.85;;;;;;;;;;5057724;28;20068;-67
2022/02/09 06:41:59;;;;;;;6.18;2.15;;;;;;;;;;5073665;28;20051;-67
2022/02/09 06:44:30;;;;;;;6.65;2.35;;;;;;;;;;5074068;28;20059;-69
2022/02/09 06:46:58;;;;;;;8.75;2.90;;;;;;;;;;5074268;28;20209;-70
2022/02/09 06:49:25;;;;;;;10.95;3.20;;;;;;;;;;5074882;28;20379;-68
2022/02/09 06:51:52;;;;;;;19.40;3.03;;;;;;;;;;5072215;28;20051;-69
2022/02/09 06:59:28;;;;;;;14.05;4.07;;;;;;;;;;5073893;28;20044;-68
2022/02/09 07:01:57;;;;;;;10.20;3.78;;;;;;;;;;5073990;28;20044;-69
2022/02/09 07:04:26;;;;;;;11.07;3.88;;;;;;;;;;5074009;28;20047;-71
2022/02/09 07:06:56;;;;;;;7.30;3.83;;;;;;;;;;5073221;28;20040;-69
2022/02/09 07:09:24;;;;;;;12.88;4.57;;;;;;;;;;5073322;28;20487;-71
2022/02/09 07:11:52;;;;;;;10.02;4.30;;;;;;;;;;5074103;28;20045;-71
2022/02/09 07:14:23;;;;;;;10.98;3.80;;;;;;;;;;5074056;28;20044;-71
2022/02/09 07:16:52;;;;;;;14.70;4.10;;;;;;;;;;5074303;28;20048;-70
2022/02/09 07:19:20;;;;;;;13.50;4.13;;;;;;;;;;5069586;28;20037;-70
2022/02/09 07:21:48;;;;;;;17.80;4.05;;;;;;;;;;5063705;28;20033;-71
2022/02/09 07:24:19;;;;;;;12.63;4.32;;;;;;;;;;5062391;28;20045;-69
2022/02/09 07:29:15;;;;;;;10.75;3.58;;;;;;;;;;5053733;28;20123;-70
2022/02/09 07:31:43;;;;;;;11.50;3.42;;;;;;;;;;5062530;28;20031;-70
2022/02/09 07:34:11;;;;;;;7.38;3.40;;;;;;;;;;5062397;28;20044;-71
2022/02/09 07:36:42;;;;;;;5.63;2.78;;;;;;;;;;5062630;28;20036;-69
2022/02/09 07:39:12;;;;;;;5.73;2.20;;;;;;;;;;5061996;28;20559;-69
2022/02/09 07:41:46;;;;;;;6.05;2.42;;;;;;;;;;5061917;28;20040;-71
2022/02/09 07:44:32;;;;;;;5.28;2.28;;;;;;;;;;5062674;28;20064;-71
2022/02/09 07:47:11;;;;;;;3.97;2.03;;;;;;;;;;5059981;28;20063;-71
2022/02/09 07:49:52;;;;;;;7.30;2.35;;;;;;;;;;5053303;28;20043;-71
2022/02/09 07:52:26;;;;;;;6.20;2.20;;;;;;;;;;5052588;28;20124;-69
2022/02/09 07:54:55;;;;;;;7.65;2.15;;;;;;;;;;5053144;28;20055;-69
2022/02/09 07:57:22;;;;;;;4.60;1.90;;;;;;;;;;5053444;28;20065;-71
2022/02/09 07:59:50;;;;;;;5.38;2.20;;;;;;;;;;5053262;28;20057;-71
2022/02/09 08:02:17;;;;;;;3.95;1.92;;;;;;;;;;5068292;28;20066;-71
2022/02/09 08:04:45;;;;;;;2.72;1.83;;;;;;;;;;5073518;28;20119;-69
2022/02/09 08:07:13;;;;;;;4.03;2.15;;;;;;;;;;5072939;28;20139;-69
2022/02/09 08:09:43;;;;;;;11.50;3.20;;;;;;;;;;5073203;28;20046;-69
2022/02/09 08:12:32;;;;;;;6.78;2.38;;;;;;;;;;5073077;28;20040;-69
2022/02/09 08:33:39;;;;;;;3.72;1.05;;;;;;;;;;5073112;28;20059;-69
2022/02/09 08:36:08;;;;;;;4.13;1.63;;;;;;;;;;5072949;28;20044;-70
2022/02/09 08:38:36;;;;;;;6.57;1.75;;;;;;;;;;5072935;28;20098;-70
2022/02/09 08:41:04;;;;;;;4.00;1.55;;;;;;;;;;5072798;28;20056;-68
2022/02/09 08:43:31;;;;;;;5.43;2.85;;;;;;;;;;5072552;28;20037;-70
2022/02/09 08:45:59;;;;;;;8.43;3.15;;;;;;;;;;5072892;28;20127;-68
2022/02/09 08:48:26;;;;;;;6.18;3.58;;;;;;;;;;5054961;28;20046;-70
2022/02/09 08:50:53;;;;;;;7.40;3.30;;;;;;;;;;5072784;28;20049;-67
2022/02/09 08:53:21;;;;;;;9.40;3.13;;;;;;;;;;5072937;28;20041;-70
2022/02/09 08:55:49;;;;;;;13.63;3.33;;;;;;;;;;5054527;28;20428;-68
2022/02/09 08:58:20;;;;;;;12.15;4.18;;;;;;;;;;5072621;28;20123;-69
2022/02/09 09:00:48;;;;;;;12.70;4.10;;;;;;;;;;5072263;28;20068;-68
2022/02/09 09:03:25;;;;;;;8.63;3.63;;;;;;;;;;5072360;28;20056;-69
2022/02/09 09:05:57;;;;;;;9.00;3.45;;;;;;;;;;5072144;28;20123;-67
2022/02/09 10:33:51;;;;;;;6.65;3.40;;;;;;;;;;5015289;28;20056;-70
2022/02/09 10:36:20;;;;;;;4.63;2.95;;;;;;;;;;5015026;28;20049;-68
2022/02/09 10:38:50;;;;;;;6.97;3.33;;;;;;;;;;5014819;28;20042;-69
2022/02/09 10:41:29;;;;;;;8.82;3.20;;;;;;;;;;5015000;28;20366;-70
2022/02/09 10:44:20;;;;;;;4.85;3.05;;;;;;;;;;5014871;28;20042;-70
2022/02/09 10:46:48;;;;;;;3.90;3.20;;;;;;;;;;5015131;28;20066;-68
2022/02/09 10:49:19;;;;;;;6.90;3.67;;;;;;;;;;5015081;28;20497;-70
2022/02/09 10:54:29;;;;;;;4.35;2.88;;;;;;;;;;5014732;28;20462;-71
2022/02/09 10:56:58;;;;;;;7.50;3.47;;;;;;;;;;5015083;28;20038;-69
2022/02/09 10:59:27;;;;;;;6.85;3.40;;;;;;;;;;5013692;28;20057;-70
2022/02/09 11:01:56;;;;;;;5.93;2.85;;;;;;;;;;5014901;28;20046;-70
2022/02/09 11:04:24;;;;;;;8.30;2.97;;;;;;;;;;5014728;28;20041;-70
2022/02/09 11:06:51;;;;;;;5.03;2.80;;;;;;;;;;5014402;28;20045;-70
2022/02/09 11:09:28;;;;;;;6.57;3.08;;;;;;;;;;5014768;28;20038;-70
2022/02/09 11:11:57;;;;;;;5.38;3.28;;;;;;;;;;5014695;28;20042;-70
2022/02/09 11:14:27;;;;;;;4.90;3.10;;;;;;;;;;5014599;28;20052;-68
2022/02/09 11:16:58;;;;;;;7.10;3.00;;;;;;;;;;5014251;28;20409;-71
2022/02/09 11:19:33;;;;;;;5.20;3.17;;;;;;;;;;5014209;28;20042;-68
2022/02/09 11:22:05;;;;;;;6.00;2.97;;;;;;;;;;5014104;28;20042;-71
2022/02/09 11:24:32;;;;;;;7.07;3.38;;;;;;;;;;5014294;28;20045;-68
2022/02/09 11:27:23;;;;;;;5.03;2.70;;;;;;;;;;5013882;28;20034;-70
2022/02/09 11:30:06;;;;;;;5.40;2.50;;;;;;;;;;5014172;28;20037;-72
2022/02/09 11:32:57;;;;;;;3.08;2.10;;;;;;;;;;5014357;28;20510;-68
2022/02/09 11:35:32;;;;;;;3.85;2.50;;;;;;;;;;5014374;28;20045;-70
2022/02/09 11:41:08;;;;;;;4.55;2.60;;;;;;;;;;5013946;28;20060;-70
2022/02/09 11:43:42;;;;;;;4.05;2.30;;;;;;;;;;5014024;28;20045;-70
2022/02/09 11:47:23;;;;;;;7.25;2.60;;;;;;;;;;5014170;28;20435;-72
2022/02/09 11:50:04;;;;;;;8.68;2.80;;;;;;;;;;5004352;28;20054;-72
2022/02/09 11:52:45;;;;;;;6.30;2.42;;;;;;;;;;5011789;28;20096;-71
2022/02/09 11:56:44;;;;;;;7.07;2.58;;;;;;;;;;5013361;28;20049;-70
2022/02/09 12:01:14;;;;;;;5.97;2.40;;;;;;;;;;5012892;28;20049;-71
2022/02/09 12:09:41;;;;;;;7.82;2.55;;;;;;;;;;5013109;28;20050;-71
2022/02/09 12:12:13;;;;;;;6.50;2.00;;;;;;;;;;5013017;28;20104;-70
2022/02/09 12:22:51;;;;;;;1.42;1.30;;;;;;;;;;5012931;28;20046;-69
2022/02/09 12:25:20;;;;;;;3.28;1.20;;;;;;;;;;5012856;28;20101;-69
2022/02/09 12:27:48;;;;;;;3.08;1.20;;;;;;;;;;5012440;28;20045;-67
2022/02/09 12:30:20;;;;;;;1.65;1.10;;;;;;;;;;5012493;28;20057;-70
2022/02/09 12:32:48;;;;;;;4.78;1.40;;;;;;;;;;5012662;28;20038;-68
2022/02/09 12:35:16;;;;;;;3.58;1.27;;;;;;;;;;5008716;28;20042;-69
2022/02/09 12:37:46;;;;;;;4.07;1.48;;;;;;;;;;4999906;28;20121;-68
2022/02/09 12:40:20;;;;;;;1.63;0.98;;;;;;;;;;5001600;28;20413;-71
2022/02/09 12:42:52;;;;;;;2.28;1.15;;;;;;;;;;5007283;28;20039;-70
2022/02/09 12:45:21;;;;;;;1.75;1.20;;;;;;;;;;5007759;28;20043;-69
2022/02/09 12:47:50;;;;;;;4.18;1.00;;;;;;;;;;5003692;28;20125;-69
2022/02/09 12:50:30;;;;;;;3.92;1.10;;;;;;;;;;4996602;28;20077;-69
2022/02/09 12:52:58;;;;;;;2.85;1.35;;;;;;;;;;5001811;28;20097;-67
2022/02/09 12:55:27;;;;;;;4.50;1.10;;;;;;;;;;5001291;28;20101;-69
2022/02/09 12:57:57;;;;;;;5.90;1.27;;;;;;;;;;5021705;28;20065;-69
2022/02/09 13:00:29;;;;;;;3.47;1.33;;;;;;;;;;5003994;28;20062;-68
2022/02/09 13:02:58;;;;;;;3.95;1.60;;;;;;;;;;5004074;28;20034;-70
2022/02/09 13:05:26;;;;;;;3.40;1.33;;;;;;;;;;5003680;28;20151;-70
2022/02/09 13:07:58;;;;;;;4.28;1.23;;;;;;;;;;5010733;28;20463;-69
2022/02/09 13:10:32;;;;;;;5.60;1.60;;;;;;;;;;5002199;28;20053;-69
2022/02/09 13:13:09;;;;;;;3.92;1.30;;;;;;;;;;5002055;28;20044;-68
2022/02/09 13:15:46;;;;;;;4.90;1.40;;;;;;;;;;5002049;28;20052;-69
2022/02/09 14:11:55;;;;;;;4.00;1.33;;;;;;;;;;5015290;28;20040;-68
2022/02/09 14:48:22;;;;;;;5.10;1.70;;;;;;;;;;4974061;28;20448;-70
2022/02/09 14:56:06;;;;;;;5.07;1.67;;;;;;;;;;4973430;28;20051;-71
2022/02/09 14:58:39;;;;;;;14.00;1.90;;;;;;;;;;4973831;28;20047;-69
2022/02/09 15:01:17;;;;;;;4.75;1.85;;;;;;;;;;4973185;28;20063;-69
2022/02/09 15:22:23;;;;;;;2.70;1.63;;;;;;;;;;5013947;28;20057;-70
2022/02/09 15:24:51;;;;;;;4.40;1.52;;;;;;;;;;4995935;28;20042;-70
2022/02/09 15:27:21;;;;;;;8.80;1.98;;;;;;;;;;5013737;28;20048;-70
2022/02/09 15:29:49;;;;;;;9.57;1.73;;;;;;;;;;5012637;28;20509;-69
2022/02/09 15:32:35;;;;;;;5.00;1.92;;;;;;;;;;5013289;28;20049;-69
2022/02/09 15:35:18;;;;;;;4.18;2.00;;;;;;;;;;5033128;28;20045;-69
2022/02/09 15:37:56;;;;;;;7.47;2.17;;;;;;;;;;5013530;28;20129;-69
2022/02/09 16:23:36;;;;;;;8.13;2.00;;;;;;;;;;5012582;28;20046;-69
2022/02/09 16:44:44;;;;;;;7.88;2.83;;;;;;;;;;5016784;28;20041;-72
2022/02/09 16:50:14;;;;;;;5.28;2.58;;;;;;;;;;5024985;28;20473;-68
2022/02/09 16:52:59;;;;;;;6.15;2.67;;;;;;;;;;4994394;28;20125;-68
2022/02/09 17:20:00;;;;;;;18.55;6.43;;;;;;;;;;5016161;28;20355;-72
2022/02/09 17:22:28;;;;;;;12.90;5.18;;;;;;;;;;5019642;28;20042;-71
2022/02/09 17:24:55;;;;;;;13.93;4.90;;;;;;;;;;5019720;28;20041;-73
2022/02/09 17:27:28;;;;;;;12.82;4.25;;;;;;;;;;5015068;28;20042;-72
2022/02/09 17:30:39;;;;;;;;;;;;;;;;;;5012404;28;20040;-69
2022/02/09 17:33:09;;;;;;;12.63;3.38;;;;;;;;;;5009924;28;20508;-76
2022/02/09 17:36:38;;;;;;;5.82;2.90;;;;;;;;;;5024109;28;20049;-71
2022/02/09 17:38:34;;;;;;;12.25;3.55;;;;;;;;;;5013439;28;20165;-71
2022/02/09 17:57:45;;;;;;;8.90;4.68;;;;;;;;;;5024117;28;20382;-72
2022/02/09 18:00:16;;;;;;;14.38;4.65;;;;;;;;;;5003458;28;20129;-71
2022/02/09 18:02:45;;;;;;;10.27;4.65;;;;;;;;;;5017059;28;20040;-69
2022/02/09 18:05:23;;;;;;;23.45;7.78;;;;;;;;;;5005049;28;20409;-72
2022/02/09 18:08:01;;;;;;;13.48;5.88;;;;;;;;;;5020274;28;20116;-72
2022/02/09 18:29:44;;;;;;;17.52;7.85;;;;;;;;;;5020335;28;20046;-73
2022/02/09 18:32:41;;;;;;;15.18;7.55;;;;;;;;;;5007032;28;20109;-70
2022/02/09 18:41:45;;;;;;;12.93;5.68;;;;;;;;;;5017976;28;20048;-72
2022/02/09 18:43:35;;;;;;;22.42;6.05;;;;;;;;;;5017088;28;20520;-72
2022/02/09 18:46:21;;;;;;;15.27;7.03;;;;;;;;;;5012327;28;20409;-71
2022/02/09 19:00:35;;;;;;;12.38;5.25;;;;;;;;;;5012858;28;20136;-72
2022/02/09 19:05:32;;;;;;;16.05;5.30;;;;;;;;;;5011222;28;20446;-71
2022/02/09 19:44:39;;;;;;;25.88;9.65;;;;;;;;;;5004339;28;20050;-70
2022/02/09 19:48:41;;;;;;;19.58;9.07;;;;;;;;;;5007136;28;20034;-72
2022/02/09 19:54:39;;;;;;;17.95;9.25;;;;;;;;;;4993301;28;20138;-69
2022/02/09 19:57:04;;;;;;;17.67;8.48;;;;;;;;;;4992491;28;20042;-71
2022/02/09 19:59:35;;;;;;;21.67;9.32;;;;;;;;;;4993265;28;20050;-71
2022/02/09 20:02:05;;;;;;;20.70;9.00;;;;;;;;;;5008931;28;20497;-71
2022/02/09 20:04:35;;;;;;;22.27;8.35;;;;;;;;;;5013456;28;20414;-69
2022/02/09 20:07:03;;;;;;;20.58;8.45;;;;;;;;;;5013112;28;20042;-72
2022/02/09 20:09:30;;;;;;;21.80;8.60;;;;;;;;;;5013377;28;20046;-72
2022/02/09 20:11:58;;;;;;;18.80;8.75;;;;;;;;;;5012136;28;20046;-71
2022/02/09 20:14:26;;;;;;;21.50;8.75;;;;;;;;;;5013606;28;20046;-72
2022/02/09 20:16:54;;;;;;;23.10;8.52;;;;;;;;;;5013292;28;20042;-72
2022/02/09 20:19:24;;;;;;;13.90;8.05;;;;;;;;;;5011890;28;20145;-69
2022/02/09 20:21:51;;;;;;;23.17;8.57;;;;;;;;;;5013024;28;20038;-68
2022/02/09 20:24:19;;;;;;;15.75;7.57;;;;;;;;;;5014240;28;20060;-68
2022/02/09 20:26:48;;;;;;;18.92;7.80;;;;;;;;;;5014422;28;20493;-71
2022/02/09 20:29:21;;;;;;;15.68;7.05;;;;;;;;;;5004234;28;20521;-72
2022/02/09 20:32:11;;;;;;;15.55;7.00;;;;;;;;;;4991384;28;20129;-72
2022/02/09 20:34:49;;;;;;;20.30;6.72;;;;;;;;;;4993061;28;20046;-69
2022/02/09 20:37:17;;;;;;;14.73;6.15;;;;;;;;;;4990094;28;20053;-72
2022/02/09 20:39:56;;;;;;;13.68;5.72;;;;;;;;;;4993075;28;20133;-72
2022/02/09 20:42:25;;;;;;;10.93;5.40;;;;;;;;;;4992963;28;20042;-71
2022/02/09 20:45:07;;;;;;;17.35;5.97;;;;;;;;;;4994558;28;20122;-71
2022/02/09 20:47:36;;;;;;;15.00;5.45;;;;;;;;;;5012499;28;20111;-72
2022/02/09 20:50:05;;;;;;;15.93;6.30;;;;;;;;;;5004723;28;20042;-72
2022/02/09 20:52:35;;;;;;;12.38;5.50;;;;;;;;;;5011656;28;20045;-71
2022/02/09 20:55:05;;;;;;;13.43;5.57;;;;;;;;;;5016065;28;20045;-72
2022/02/09 20:57:34;;;;;;;15.90;5.43;;;;;;;;;;5016760;28;20033;-68
2022/02/09 21:00:07;;;;;;;11.52;5.38;;;;;;;;;;5018072;28;20052;-72
2022/02/09 21:11:17;;;;;;;11.15;4.80;;;;;;;;;;5023653;28;20117;-72
2022/02/09 21:16:33;;;;;;;10.30;4.47;;;;;;;;;;5025844;28;20405;-72
2022/02/09 21:19:29;;;;;;;14.90;5.03;;;;;;;;;;5026311;28;20042;-71
2022/02/09 21:33:31;;;;;;;9.25;4.18;;;;;;;;;;5004340;28;20129;-72
2022/02/09 22:01:27;;;;;;;7.78;4.00;;;;;;;;;;5063369;23;20063;-69
2022/02/09 22:20:16;;;;;;;8.60;4.43;;;;;;;;;;4957871;28;20426;-70
2022/02/09 22:28:21;;;;;;;6.88;4.20;;;;;;;;;;4975483;28;20034;-71
2022/02/09 22:32:03;;;;;;;12.80;4.40;;;;;;;;;;4993213;28;20050;-68
2022/02/09 22:55:40;;;;;;;12.50;5.20;;;;;;;;;;4994084;28;20042;-73
2022/02/09 22:58:09;;;;;;;10.13;5.43;;;;;;;;;;4977141;28;20132;-71
2022/02/09 23:00:54;;;;;;;8.40;4.80;;;;;;;;;;5007680;28;20415;-73
2022/02/09 23:03:32;;;;;;;9.18;5.25;;;;;;;;;;5033446;28;20448;-69
2022/02/09 23:14:00;;;;;;;9.55;5.00;;;;;;;;;;5033462;28;20037;-69
2022/02/09 23:58:03;;;;;;;7.20;4.28;;;;;;;;;;5032426;28;20152;-68
